Peru, Illinois
Current Conditions -  °F | °C
As of 11:55 AM on Saturday 20 Dec 2014 (Local Time) from KVYS Reporting Station
Haze Haze  
Wind Chill: 27°   Ceiling: 5500
Heat Index: 32°   Visibility: 5mi
Dew Point: 28°   Wind: 5mph
Humidity: 83%   Direction: 160°SSE
Pressure: 30.27"   Gusts: NA
Location:  41.33°N, 89.12°W
Report Text: KVYS 201755Z AUTO 16004KT 5SM HZ SCT035 OVC055 00/M02 A3027 RMK AO2 T00001025 10000 21017
Loading
Personal Weather Stations






























Interactive Weather Map New forecast layout! Learn more

10-Day Weather Forecast

Advertisements
Track Severe Weather on mobile